Campo Formoso, Brazil
Current Conditions -  °F | °C
As of 3:00 PM on Friday 19 Dec 2014 (Local Time) from SBPL Reporting Station
Rain Showers Rain Showers  
Wind Chill: 88°   Ceiling: 3300
Heat Index: 96°   Visibility: 6mi
Dew Point: 73°   Wind: 8mph
Humidity: 62%   Direction: 120°ESE
Pressure: NA   Gusts: NA
Location:  10.51°S, 40.32°W
Report Text: SBPL 191800Z 12007KT 9999 VCSH BKN033 FEW040TCU BKN080 31/23 Q1010
Loading
Personal Weather Stations






























Interactive Weather Map New forecast layout! Learn more

10-Day Weather Forecast

Advertisements
Track Severe Weather on mobile